Phoenix, Arizona
Traffic Map
Current Weather Conditions
Phoenix, Arizona
Broken Clouds
Broken Clouds
82°
Feels Like: 84°
Wind Chill: 82° Ceiling: 25000
Heat Index: 84° Visibility: 10mi
Dew Point: 67° Wind: 6mph
Humidity: 60% Direction: 90° (E)
Pressure: 29.87in Gusts: 0mph
Raw Report DataKPHX 051351Z 09005KT 10SM SCT065 SCT150 BKN250 28/19 A2987 RMK AO2 SLP095 T02780194
Traffic Incident Summary
Active as of:
Severity:
Category:
InformationThere was an issue retrieving the traffic information for this location. Please try a different location or try again shortly.
Advertisements
Track Severe Weather on mobile